Terminal Aerodrome Forecast
Issued by NWS Sterling, VA

Current Version | Previous Version | Text Only | Print | Product List | Glossary On
Versions: 1 2 3 4 5 6 7 8 9 10 11 12 13 14 15 16 17 18 19 20 21 22 23 24 25 26
000
FTUS41 KLWX 301135
TAFIAD
TAF
KIAD 301135Z 3012/3118 20009KT P6SM BKN050 OVC100
     FM301500 25009KT P6SM SCT050
     FM301700 28013G26KT P6SM SCT050
     FM310100 29007KT P6SM FEW250
     FM310800 23005KT P6SM SCT250
     FM311500 21011KT P6SM BKN090=

USA.gov is the U.S. government's official web portal to all federal, state and local government web resources and services.